Monday, December 17, 2018, 6:06 AM EST
Back to Local

KADW, Camp Springs / Andrews Air Force Base

Location: Andrews Air Force Base, MD, United States Lat: 38.817
Local Time: 6:06 AM EST (11:06 GMT) Lon: -76.85
Time Zone: US/Eastern Elev: 282 ft

Show me the last for .
Show Coded

Time T Td Feel RH Dir Speed Gust Alt SLP Vis Weather Sky Remarks
2018-12-17 04:56 40 37 36 86 280° 7 - 29.86 29.88 10 CLR None
2018-12-17 03:56 40 37 35 88 250° 8 - 29.88 29.90 10 CLR None
2018-12-17 02:56 42 38 40 83 290° 5 - 29.89 29.91 10 OVC034 None
2018-12-17 01:56 42 37 40 83 290° 3 - 29.89 29.91 10 OVC031 None
2018-12-17 01:11 43 37 39 81 300° 7 - 29.89 29.91 10 OVC030 None
2018-12-17 00:56 42 37 38 82 300° 6 - 29.88 29.90 10 OVC028 6-hr Min Temp (1am): 39.0°F
6-hr Max Temp (1am): 41.9°F
2018-12-17 00:46 41 37 36 86 310° 7 - 29.88 29.90 10 OVC028 None
2018-12-16 23:56 41 37 36 85 300° 8 - 29.89 29.91 10 OVC032 24-hr Min Temp (12am): 39.0°F
24-hr Max Temp (12am): 47.8°F
2018-12-16 22:56 39 36 34 86 320° 7 - 29.91 29.93 10 FEW040 None
2018-12-16 21:56 40 37 34 88 300° 8 - 29.90 29.93 10 BKN038 None
2018-12-16 20:56 40 37 33 88 320° 13 - 29.89 29.91 10 SCT014 BKN042 None
2018-12-16 20:41 41 37 33 86 320° 14 - 29.89 29.91 10 BKN015 None
2018-12-16 19:56 41 38 34 88 330° 12 - 29.89 29.91 10 OVC012 None
2018-12-16 18:56 41 38 34 91 320° 12 - 29.89 29.91 10 BKN012 OVC023 6-hr Precip Total (7pm): 0.09"
6-hr Min Temp (7pm): 40.5°F
6-hr Max Temp (7pm): 43.0°F
2018-12-16 17:56 40 39 33 93 330° 13 - 29.87 29.89 10 OVC010 None
2018-12-16 17:51 41 39 33 93 330° 15 - 29.87 29.89 10 OVC010 None
2018-12-16 17:11 41 39 35 93 330° 10 - 29.86 29.88 10 BKN009 OVC014 None
2018-12-16 17:06 41 39 34 93 330° 13 - 29.86 29.88 10 SCT009 OVC014 None
2018-12-16 16:56 41 39 32 93 330° 14 20 29.86 29.88 10 BKN010 OVC015 1-hr Precip Total: Trace
2018-12-16 16:49 41 39 32 93 330° 14 20 29.86 29.88 10 BKN010 OVC015 None
2018-12-16 16:34 41 39 33 93 320° 16 - 29.85 29.87 7 OVC008 None
2018-12-16 16:25 41 41 33 100 320° 15 - 29.84 29.86 10 -RA OVC008 None
2018-12-16 16:21 41 41 34 100 320° 13 - 29.85 29.87 10 OVC008 None
2018-12-16 16:16 41 41 34 100 320° 12 - 29.84 29.86 10 OVC010 None
2018-12-16 15:56 42 41 34 95 330° 15 - 29.83 29.85 10 OVC008 6-hr Precip Total (4pm): 0.09"
2018-12-16 15:26 43 41 36 93 330° 13 - 29.83 - 10 BKN008 OVC014 None
2018-12-16 14:56 43 41 35 93 340° 15 - 29.82 - 10 OVC011 1-hr Precip Total: Trace
2018-12-16 14:38 43 41 36 93 330° 13 - 29.81 - 10 OVC011 None
2018-12-16 14:31 43 41 36 93 330° 14 - 29.81 - 10 -RA OVC010 None
2018-12-16 14:06 43 43 37 100 330° 12 - 29.80 - 10 -RA OVC008 None
2018-12-16 14:01 43 43 36 100 330° 14 - 29.80 - 10 -RA BKN007 OVC011 None
2018-12-16 13:56 43 42 37 97 340° 12 - 29.80 - 10 -RA OVC008 1-hr Precip Total: 0.09"
2018-12-16 13:51 43 43 36 100 330° 14 - 29.79 - 10 -RA OVC008 None
2018-12-16 12:56 43 42 36 99 340° 13 - 29.79 - 8 +RA BKN007 OVC014 1-hr Precip Total: 0.19"
6-hr Precip Total (1pm): 0.51"
6-hr Min Temp (1pm): 42.6°F
6-hr Max Temp (1pm): 45.0°F
2018-12-16 11:56 43 43 36 99 340° 14 - 29.81 - 9 +RA OVC006 1-hr Precip Total: 0.11"
2018-12-16 11:46 43 43 35 100 350° 15 - 29.81 - 10 +RA OVC006 None
2018-12-16 10:56 44 43 37 99 360° 13 - 29.83 - 9 RA OVC005 1-hr Precip Total: 0.10"
2018-12-16 10:06 45 43 38 93 10° 14 - 29.85 29.87 5 -RA BR OVC005 None
2018-12-16 09:56 44 44 37 99 360° 14 - 29.85 29.87 5 -RA BR OVC004 1-hr Precip Total: 0.08"
6-hr Precip Total (10am): 0.11"
2018-12-16 08:56 44 44 38 99 10° 12 - 29.86 29.88 5 -RA BR OVC004 1-hr Precip Total: 0.02"
2018-12-16 08:53 45 45 39 100 10° 10 - 29.86 29.88 5 -DZ BR OVC004 None
2018-12-16 08:30 45 45 38 100 20° 13 - 29.85 29.87 3 BR OVC004 None
2018-12-16 08:26 45 45 39 100 20° 12 - 29.85 29.87 3 -RA BR OVC004 None
2018-12-16 07:56 45 44 39 99 10° 10 - 29.85 29.87 2 -DZ BR OVC004 1-hr Precip Total: 0.01"
2018-12-16 07:47 45 45 39 100 10° 10 - 29.85 29.87 2 -DZ BR OVC004 None
2018-12-16 07:32 45 45 40 100 20° 9 - 29.84 29.86 2 -DZ BR OVC005 None
2018-12-16 07:17 45 45 39 100 20° 10 - 29.84 29.86 2 -DZ BR BKN004 OVC008 None
2018-12-16 06:56 45 45 40 99 20° 10 - 29.85 29.87 4 -DZ BR OVC004 1-hr Precip Total: 0.01"
6-hr Precip Total (7am): 0.05"
24-hr Precip Total (7am): 2.07"
6-hr Min Temp (7am): 45.0°F
6-hr Max Temp (7am): 47.8°F
2018-12-16 06:20 46 46 41 100 20° 10 - 29.84 29.86 3 -DZ BR OVC004 None

Support USWX by starting your Amazon purchase here.